Time;durP1;ratioP1;P1;durP2;ratioP2;P2;SDS_P1;SDS_P2;PMS_P1;PMS_P2;Temp;Humidity;BMP_temperature;BMP_pressure;BME280_temperature;BME280_humidity;BME280_pressure;Samples;Min_cycle;Max_cycle;Signal;HPM_P1;HPM_P2
2022/07/14 00:02:18;;;;;;;;;13.33;12.00;;;;;27.39;36.13;101107.63;4893039;28;45594;-84
2022/07/14 00:04:43;;;;;;;;;15.67;15.67;;;;;27.40;36.42;101113.97;4893018;28;45505;-84
2022/07/14 00:07:09;;;;;;;;;17.00;14.33;;;;;27.36;36.31;101098.69;4894689;28;45439;-84
2022/07/14 00:09:35;;;;;;;;;13.33;13.33;;;;;27.33;35.96;101095.16;4893536;28;45526;-83
2022/07/14 00:12:00;;;;;;;;;13.33;13.00;;;;;27.36;35.78;101090.50;4893071;28;45403;-83
2022/07/14 00:14:26;;;;;;;;;11.00;11.00;;;;;27.36;36.00;101080.44;4894008;28;45561;-83
2022/07/14 00:16:51;;;;;;;;;13.00;13.00;;;;;27.36;36.48;101068.66;4892445;29;47088;-85
2022/07/14 00:19:20;;;;;;;;;12.67;12.67;;;;;27.37;36.19;101059.47;4892299;28;45365;-85
2022/07/14 00:21:46;;;;;;;;;12.33;12.00;;;;;27.44;36.25;101071.88;4891919;28;45471;-85
2022/07/14 00:24:12;;;;;;;;;11.33;11.33;;;;;27.38;36.34;101058.53;4892245;29;45369;-85
2022/07/14 00:26:42;;;;;;;;;13.67;11.67;;;;;27.36;36.77;101052.25;4905615;29;46922;-85
2022/07/14 00:29:08;;;;;;;;;10.33;10.33;;;;;27.37;36.87;101048.56;4909503;28;44778;-84
2022/07/14 00:34:58;;;;;;;;;10.67;10.67;;;;;27.41;36.92;101051.06;4933778;28;45461;-84
2022/07/14 00:37:25;;;;;;;;;16.67;15.33;;;;;27.42;36.90;101058.28;4933297;28;48056;-83
2022/07/14 00:39:58;;;;;;;;;14.00;13.00;;;;;27.41;37.14;101058.34;4931964;28;45820;-84
2022/07/14 00:42:32;;;;;;;;;13.00;13.00;;;;;27.43;37.38;101065.53;4932738;28;45445;-85
2022/07/14 00:45:03;;;;;;;;;14.00;12.00;;;;;27.43;36.83;101064.63;4933195;28;45620;-85
2022/07/14 00:47:29;;;;;;;;;12.67;12.33;;;;;27.41;37.33;101066.56;4932971;28;45464;-85
2022/07/14 00:49:55;;;;;;;;;13.67;12.67;;;;;27.39;37.20;101068.47;4916468;28;45402;-83
2022/07/14 00:52:23;;;;;;;;;15.33;15.00;;;;;27.36;37.14;101068.66;4932666;28;44839;-83
2022/07/14 00:54:48;;;;;;;;;13.67;13.67;;;;;27.19;36.97;101062.16;4934536;28;45394;-83
2022/07/14 00:57:14;;;;;;;;;15.00;15.00;;;;;27.11;37.15;101078.03;4931462;28;47252;-84
2022/07/14 00:59:39;;;;;;;;;14.67;14.67;;;;;26.92;37.67;101070.78;4932113;28;45390;-84
2022/07/14 01:02:05;;;;;;;;;12.00;12.00;;;;;26.80;38.74;101082.25;4932983;28;45468;-84
2022/07/14 01:04:30;;;;;;;;;10.33;10.33;;;;;26.75;37.58;101095.25;4935128;28;45449;-84
2022/07/14 01:06:56;;;;;;;;;12.00;10.00;;;;;26.59;38.92;101091.50;4933666;28;46694;-85
2022/07/14 01:09:22;;;;;;;;;8.33;8.00;;;;;26.57;37.85;101093.38;4935429;28;45409;-84
2022/07/14 01:11:47;;;;;;;;;9.67;9.67;;;;;26.45;38.28;101098.44;4920020;28;44870;-83
2022/07/14 01:14:13;;;;;;;;;8.33;7.00;;;;;26.36;38.09;101098.88;4937024;28;45351;-84
2022/07/14 01:16:38;;;;;;;;;6.33;6.33;;;;;26.35;38.23;101097.09;4937932;28;45499;-84
2022/07/14 01:19:03;;;;;;;;;9.00;9.00;;;;;26.26;38.41;101092.97;4935547;28;45420;-84
2022/07/14 01:21:29;;;;;;;;;8.33;8.33;;;;;26.25;38.45;101101.19;4936052;28;45453;-84
2022/07/14 01:23:54;;;;;;;;;10.33;8.00;;;;;26.22;38.36;101106.78;4936972;28;45416;-83
2022/07/14 01:26:20;;;;;;;;;8.00;8.00;;;;;26.10;39.26;101109.13;4934090;28;46522;-83
2022/07/14 01:28:45;;;;;;;;;13.33;11.67;;;;;26.08;39.81;101113.75;4943877;28;45551;-83
2022/07/14 01:31:11;;;;;;;;;14.33;12.67;;;;;26.05;40.47;101115.72;4938986;28;45418;-84
2022/07/14 01:33:36;;;;;;;;;15.00;13.67;;;;;25.98;40.10;101115.13;4938346;28;45322;-84
2022/07/14 01:36:03;;;;;;;;;16.00;14.33;;;;;25.96;39.48;101117.03;4938319;28;45309;-84
2022/07/14 01:38:29;;;;;;;;;16.67;15.00;;;;;25.91;40.14;101121.78;4956544;28;45353;-84
2022/07/14 01:40:54;;;;;;;;;15.33;14.33;;;;;25.85;39.55;101111.13;4955621;28;45445;-84
2022/07/14 01:43:20;;;;;;;;;13.33;12.33;;;;;25.82;39.61;101108.53;4937641;28;45494;-84
2022/07/14 01:45:47;;;;;;;;;15.33;13.33;;;;;25.87;39.74;101104.63;4937557;28;47423;-84
2022/07/14 01:51:35;;;;;;;;;11.00;9.67;;;;;25.82;40.16;101098.53;4955426;28;45470;-84
2022/07/14 01:54:00;;;;;;;;;10.67;10.67;;;;;25.80;39.88;101091.38;4956104;28;45414;-85
2022/07/14 01:56:26;;;;;;;;;8.00;7.33;;;;;25.77;40.38;101091.50;4955311;28;45505;-84
2022/07/14 01:58:52;;;;;;;;;10.33;8.67;;;;;25.75;39.99;101092.47;4938967;28;45446;-83
2022/07/14 02:04:02;;;;;;;;;9.67;7.67;;;;;25.67;40.29;101083.75;4955710;28;45553;-84
2022/07/14 02:06:28;;;;;;;;;7.67;7.67;;;;;25.64;40.38;101081.13;4938256;28;47732;-84
2022/07/14 02:08:53;;;;;;;;;8.00;6.33;;;;;25.64;40.57;101083.88;4953047;28;45598;-84
2022/07/14 02:14:03;;;;;;;;;7.33;7.33;;;;;25.41;41.57;101070.34;4952214;28;45547;-83
2022/07/14 02:16:30;;;;;;;;;8.67;6.33;;;;;25.35;42.69;101072.38;4952456;28;45528;-84
2022/07/14 02:18:59;;;;;;;;;9.00;9.00;;;;;25.23;41.88;101072.91;4951812;28;45385;-85
2022/07/14 02:21:25;;;;;;;;;7.33;7.33;;;;;25.19;42.52;101076.66;4952526;28;45469;-83
2022/07/14 02:23:51;;;;;;;;;8.00;6.00;;;;;25.07;43.17;101075.34;4936387;28;44952;-84
2022/07/14 02:26:17;;;;;;;;;12.00;10.00;;;;;25.02;42.82;101065.59;4937455;28;47035;-83
2022/07/14 02:28:43;;;;;;;;;12.67;9.67;;;;;25.03;44.06;101070.09;4951586;28;45529;-85
2022/07/14 02:31:09;;;;;;;;;7.33;7.33;;;;;25.00;43.85;101073.81;4935945;28;45426;-85
2022/07/14 02:33:35;;;;;;;;;7.67;7.67;;;;;24.87;44.01;101059.81;4937446;28;45457;-84
2022/07/14 02:36:01;;;;;;;;;6.67;6.33;;;;;24.84;44.24;101067.22;4937064;28;47970;-85
2022/07/14 02:38:27;;;;;;;;;10.00;8.67;;;;;24.71;45.33;101054.09;4936047;28;45356;-83
2022/07/14 02:40:52;;;;;;;;;3.67;3.67;;;;;24.68;45.82;101069.66;4936611;28;45418;-84
2022/07/14 02:43:18;;;;;;;;;9.67;9.67;;;;;24.61;45.16;101073.59;4954382;28;45329;-85
2022/07/14 02:45:44;;;;;;;;;8.33;8.00;;;;;24.55;47.44;101077.41;4936992;28;46918;-83
2022/07/14 02:48:09;;;;;;;;;9.67;9.00;;;;;24.53;45.40;101066.59;4954654;28;45410;-84
2022/07/14 02:50:40;;;;;;;;;9.33;9.33;;;;;24.49;47.64;101064.03;4937122;28;44988;-84
2022/07/14 02:53:06;;;;;;;;;9.67;9.67;;;;;24.44;45.04;101066.94;4953194;28;45333;-84
2022/07/14 02:55:34;;;;;;;;;10.00;9.67;;;;;24.30;48.21;101050.28;4936295;28;46670;-85
2022/07/14 02:58:00;;;;;;;;;8.67;8.67;;;;;24.35;45.90;101064.56;4955428;28;45327;-84
2022/07/14 03:00:26;;;;;;;;;9.00;9.00;;;;;24.33;45.72;101067.31;4938348;28;45475;-84
2022/07/14 03:03:41;;;;;;;;;10.67;8.00;;;;;24.29;48.63;101067.50;4953725;28;45419;-85
2022/07/14 03:06:16;;;;;;;;;12.00;12.00;;;;;24.23;46.15;101067.75;4954259;28;45415;-85
2022/07/14 03:08:43;;;;;;;;;9.33;9.33;;;;;24.24;46.90;101053.19;4938130;28;45462;-85
2022/07/14 03:11:09;;;;;;;;;6.00;6.00;;;;;24.24;47.13;101058.63;4955553;28;45569;-84
2022/07/14 03:13:35;;;;;;;;;9.67;8.67;;;;;24.23;46.57;101063.19;4953483;28;45468;-84
2022/07/14 03:16:01;;;;;;;;;8.00;8.00;;;;;24.22;46.85;101060.50;4951008;28;45570;-84
2022/07/14 03:18:26;;;;;;;;;9.67;8.67;;;;;24.15;46.63;101054.44;4952455;28;44737;-84
2022/07/14 03:20:52;;;;;;;;;9.00;9.00;;;;;24.19;47.63;101066.97;4951027;28;44816;-85
2022/07/14 03:26:39;;;;;;;;;11.00;11.00;;;;;24.10;46.69;101051.91;4952515;28;45680;-83
2022/07/14 03:29:07;;;;;;;;;9.33;8.00;;;;;24.10;47.14;101053.75;4951397;28;45401;-84
2022/07/14 03:31:33;;;;;;;;;10.00;9.33;;;;;24.07;47.86;101059.28;4921928;28;44860;-84
2022/07/14 03:33:59;;;;;;;;;9.33;8.00;;;;;24.02;48.06;101053.13;4937256;28;45439;-84
2022/07/14 03:36:25;;;;;;;;;9.00;9.00;;;;;24.00;47.68;101049.59;4936393;28;47959;-84
2022/07/14 03:38:51;;;;;;;;;8.00;8.00;;;;;23.93;49.18;101048.91;4953798;28;45432;-84
2022/07/14 03:41:17;;;;;;;;;6.67;6.67;;;;;23.94;49.22;101058.84;4952510;28;45481;-84
2022/07/14 03:43:46;;;;;;;;;9.33;9.33;;;;;23.87;49.45;101070.84;4935645;28;45557;-83
2022/07/14 03:46:12;;;;;;;;;8.67;8.00;;;;;23.79;52.90;101070.25;4934706;28;46796;-83
2022/07/14 03:48:39;;;;;;;;;8.00;8.00;;;;;23.70;51.22;101057.88;4935573;28;45408;-84
2022/07/14 03:51:05;;;;;;;;;9.67;9.67;;;;;23.63;50.13;101059.91;4951566;28;45486;-84
2022/07/14 03:53:31;;;;;;;;;8.00;8.00;;;;;23.54;52.71;101054.78;4951875;28;45625;-84
2022/07/14 03:56:00;;;;;;;;;8.00;8.00;;;;;23.54;52.36;101057.50;4950384;28;47175;-84
2022/07/14 03:58:35;;;;;;;;;9.67;9.33;;;;;23.50;53.43;101055.84;4933801;28;45575;-84
2022/07/14 04:01:05;;;;;;;;;9.00;9.00;;;;;23.45;52.87;101063.25;4952044;28;45387;-83
2022/07/14 04:03:30;;;;;;;;;7.67;7.67;;;;;23.42;52.07;101055.22;4953159;28;45397;-84
2022/07/14 04:05:57;;;;;;;;;7.67;7.67;;;;;23.47;51.87;101061.38;4936008;28;47392;-83
2022/07/14 04:08:22;;;;;;;;;8.67;8.67;;;;;23.43;52.32;101057.91;4934495;28;45662;-83
2022/07/14 04:10:49;;;;;;;;;10.33;10.00;;;;;23.46;52.49;101054.19;4951694;28;45334;-84
2022/07/14 04:13:15;;;;;;;;;10.00;9.00;;;;;23.44;52.06;101056.06;4953517;28;45423;-84
2022/07/14 04:15:41;;;;;;;;;10.33;10.33;;;;;23.43;51.98;101054.25;4935730;28;46729;-84
2022/07/14 04:18:09;;;;;;;;;8.33;8.33;;;;;23.45;51.91;101058.72;4952370;28;45239;-84
2022/07/14 04:20:36;;;;;;;;;8.00;8.00;;;;;23.50;54.01;101066.69;4955135;28;44739;-84
2022/07/14 04:23:02;;;;;;;;;9.67;9.67;;;;;23.45;52.89;101063.25;4953443;28;45448;-84
2022/07/14 04:25:28;;;;;;;;;9.33;9.00;;;;;23.36;52.76;101049.06;4952671;28;47086;-84
2022/07/14 04:27:56;;;;;;;;;8.00;8.00;;;;;23.34;55.31;101045.50;4953410;28;45469;-84
2022/07/14 04:30:22;;;;;;;;;10.67;10.33;;;;;23.42;53.21;101057.94;4947969;28;45438;-84
2022/07/14 04:32:50;;;;;;;;;10.00;10.00;;;;;23.32;52.79;101041.94;4922654;28;45373;-84
2022/07/14 04:35:17;;;;;;;;;12.00;11.67;;;;;23.20;52.69;101027.94;4911115;28;46964;-85
2022/07/14 04:37:43;;;;;;;;;8.33;8.33;;;;;23.36;52.95;101062.63;4910927;29;45437;-84
2022/07/14 04:40:09;;;;;;;;;7.67;7.67;;;;;23.35;53.72;101060.88;4913216;28;45365;-84
2022/07/14 04:42:35;;;;;;;;;10.67;9.33;;;;;23.45;53.60;101072.31;4911657;28;45479;-84
2022/07/14 04:45:02;;;;;;;;;10.00;8.67;;;;;23.48;53.35;101079.44;4881704;29;47675;-84
2022/07/14 04:47:28;;;;;;;;;9.33;9.00;;;;;23.32;53.25;101052.81;4913759;29;45360;-84
2022/07/14 04:52:46;;;;;;;;;10.67;10.67;;;;;23.31;54.21;101064.63;4914282;29;45726;-84
2022/07/14 04:55:12;;;;;;;;;7.67;7.67;;;;;23.26;56.73;101080.16;4912458;29;47567;-85
2022/07/14 04:57:38;;;;;;;;;9.33;9.33;;;;;23.26;55.85;101068.41;4914507;29;45411;-84
2022/07/14 05:00:04;;;;;;;;;11.00;11.00;;;;;23.23;54.75;101054.94;4913631;28;45480;-84
2022/07/14 05:02:30;;;;;;;;;13.00;10.00;;;;;23.40;54.80;101073.38;4929136;28;45430;-84
2022/07/14 05:04:56;;;;;;;;;12.00;12.00;;;;;23.45;54.26;101071.38;4912153;28;48203;-85
2022/07/14 05:07:22;;;;;;;;;11.00;11.00;;;;;23.50;54.22;101078.44;4911670;29;45804;-85
2022/07/14 05:09:47;;;;;;;;;10.67;10.00;;;;;23.56;53.95;101085.50;4911455;28;45558;-84
2022/07/14 05:12:17;;;;;;;;;10.67;9.33;;;;;23.58;54.42;101086.31;4926311;28;45374;-85
2022/07/14 05:14:43;;;;;;;;;8.33;8.00;;;;;23.49;54.22;101064.91;4949175;28;46723;-84
2022/07/14 05:17:13;;;;;;;;;11.33;11.33;;;;;23.51;54.09;101063.03;4932646;28;45556;-84
2022/07/14 05:19:39;;;;;;;;;11.33;11.33;;;;;23.61;54.29;101069.91;4948777;28;44787;-84
2022/07/14 05:22:04;;;;;;;;;11.33;11.00;;;;;23.46;55.25;101046.03;4948174;28;45440;-85
2022/07/14 05:24:37;;;;;;;;;10.33;10.33;;;;;23.60;53.51;101067.28;4932150;28;45997;-85
2022/07/14 05:27:03;;;;;;;;;9.67;9.67;;;;;23.59;54.03;101066.38;4931165;28;45589;-85
2022/07/14 05:29:35;;;;;;;;;7.33;7.33;;;;;23.63;53.76;101067.16;4944721;28;44943;-85
2022/07/14 05:32:01;;;;;;;;;11.67;10.33;;;;;23.83;53.41;101080.06;4930003;28;44837;-84
2022/07/14 05:34:27;;;;;;;;;12.00;10.00;;;;;24.02;53.73;101083.03;4930567;28;47266;-85
2022/07/14 05:36:52;;;;;;;;;10.67;10.67;;;;;24.05;53.62;101070.19;4946931;28;45429;-85
2022/07/14 05:39:18;;;;;;;;;12.00;11.00;;;;;24.24;52.80;101084.00;4932243;28;45388;-85
2022/07/14 05:41:47;;;;;;;;;11.67;10.33;;;;;24.15;53.42;101063.47;4934860;28;45381;-85
2022/07/14 05:44:12;;;;;;;;;13.67;13.00;;;;;24.33;52.55;101080.03;4932386;28;45364;-85
2022/07/14 05:46:45;;;;;;;;;9.67;8.67;;;;;24.21;52.64;101065.06;4946956;28;44749;-84
2022/07/14 05:49:10;;;;;;;;;11.00;11.00;;;;;24.38;51.77;101075.31;4931683;28;45389;-85
2022/07/14 05:51:36;;;;;;;;;12.00;12.00;;;;;24.63;52.69;101079.84;4934479;28;45397;-85
2022/07/14 05:54:02;;;;;;;;;10.00;10.00;;;;;24.59;52.15;101042.84;4934147;28;47003;-85
2022/07/14 05:56:30;;;;;;;;;10.67;10.67;;;;;24.72;51.96;101066.78;4935791;28;45432;-85
2022/07/14 05:58:56;;;;;;;;;10.67;10.67;;;;;24.86;51.38;101079.78;4934138;28;44946;-85
2022/07/14 06:01:22;;;;;;;;;13.33;13.00;;;;;24.81;50.64;101049.19;4936390;28;45473;-86
2022/07/14 06:03:53;;;;;;;;;10.00;10.00;;;;;25.01;51.17;101093.75;4934143;28;45500;-86
2022/07/14 06:09:41;;;;;;;;;11.33;11.33;;;;;25.36;50.89;101097.78;4934902;28;45458;-85
2022/07/14 06:12:10;;;;;;;;;12.33;12.00;;;;;25.51;50.35;101093.50;4935595;28;45416;-85
2022/07/14 06:14:36;;;;;;;;;13.00;12.00;;;;;25.59;49.78;101098.63;4935228;28;45333;-85
2022/07/14 06:17:02;;;;;;;;;11.67;10.67;;;;;25.48;50.26;101082.75;4949752;28;45525;-85
2022/07/14 06:19:28;;;;;;;;;12.67;12.67;;;;;25.44;49.66;101083.84;4949118;28;45453;-86
2022/07/14 06:21:53;;;;;;;;;10.33;9.33;;;;;25.41;50.05;101082.13;4934756;28;45512;-86
2022/07/14 06:24:19;;;;;;;;;14.67;11.00;;;;;25.53;50.84;101097.97;4935036;28;45329;-86
2022/07/14 06:26:44;;;;;;;;;12.67;11.00;;;;;25.36;51.21;101092.31;4949848;28;45408;-86
2022/07/14 06:29:10;;;;;;;;;14.00;13.33;;;;;25.40;50.18;101096.69;4930147;28;45458;-85
2022/07/14 06:31:37;;;;;;;;;11.33;11.33;;;;;25.30;50.01;101098.03;4935297;28;45290;-85
2022/07/14 06:34:13;;;;;;;;;14.33;13.00;;;;;24.97;50.23;101049.47;4933547;28;46318;-85
2022/07/14 06:36:39;;;;;;;;;12.67;12.33;;;;;25.15;51.22;101077.75;4936141;28;45468;-85
2022/07/14 06:39:05;;;;;;;;;13.00;13.00;;;;;25.22;50.44;101089.28;4933712;28;45750;-85
2022/07/14 06:41:30;;;;;;;;;13.67;13.00;;;;;25.09;51.51;101062.56;4934882;28;44806;-85
2022/07/14 06:43:56;;;;;;;;;16.00;13.00;;;;;25.04;50.52;101050.97;4934080;28;45359;-85
2022/07/14 06:46:21;;;;;;;;;10.00;10.00;;;;;25.23;50.24;101088.31;4934164;28;44842;-84
2022/07/14 06:48:47;;;;;;;;;16.33;15.00;;;;;25.18;51.22;101069.44;4935397;28;44819;-85
2022/07/14 06:51:13;;;;;;;;;12.33;12.33;;;;;25.54;50.90;101096.09;4935479;28;44859;-85
2022/07/14 06:53:39;;;;;;;;;12.67;12.67;;;;;25.73;49.89;101105.28;4935052;28;46943;-85
2022/07/14 06:56:04;;;;;;;;;13.00;11.33;;;;;25.67;50.11;101074.66;4918483;28;45405;-85
2022/07/14 06:58:30;;;;;;;;;13.67;13.67;;;;;25.88;49.59;101108.28;4934273;28;44803;-84
2022/07/14 07:00:56;;;;;;;;;13.33;13.33;;;;;25.74;49.62;101101.56;4937014;28;45329;-85
2022/07/14 07:03:21;;;;;;;;;13.33;13.33;;;;;25.83;50.18;101102.13;4934919;28;47135;-85
2022/07/14 07:08:31;;;;;;;;;12.67;12.00;;;;;26.27;49.65;101102.00;4936979;28;45302;-84
2022/07/14 07:10:58;;;;;;;;;9.67;9.67;;;;;26.39;48.95;101103.28;4934696;28;45230;-85
2022/07/14 07:13:26;;;;;;;;;15.00;12.67;;;;;26.48;48.77;101087.41;4935640;28;45513;-85
2022/07/14 07:15:54;;;;;;;;;13.33;12.33;;;;;26.65;47.92;101074.84;4933939;28;45784;-85
2022/07/14 07:18:20;;;;;;;;;14.33;14.33;;;;;26.82;47.83;101102.16;4934084;28;45386;-85
2022/07/14 07:20:47;;;;;;;;;14.00;13.67;;;;;26.95;47.43;101097.03;4934028;28;45673;-85
2022/07/14 07:23:12;;;;;;;;;11.00;9.33;;;;;26.97;47.67;101105.16;4949981;28;45605;-85
2022/07/14 07:25:38;;;;;;;;;9.50;9.50;;;;;26.71;47.88;101056.31;4949544;28;45437;-85
2022/07/14 07:28:04;;;;;;;;;14.00;12.00;;;;;26.63;47.82;101052.19;4934847;28;44827;-85
2022/07/14 07:30:43;;;;;;;;;11.33;11.33;;;;;26.82;47.38;101074.88;4949013;28;45487;-84
2022/07/14 07:33:09;;;;;;;;;14.33;13.67;;;;;26.96;47.18;101086.97;4950783;28;47927;-85
2022/07/14 07:35:36;;;;;;;;;12.67;11.67;;;;;26.86;46.80;101073.78;4932840;28;45287;-85
2022/07/14 07:38:02;;;;;;;;;12.33;12.33;;;;;26.73;46.92;101058.97;4948767;28;44708;-84
2022/07/14 07:40:27;;;;;;;;;10.00;9.67;;;;;26.77;46.66;101093.34;4948541;28;45355;-85
2022/07/14 07:42:53;;;;;;;;;11.00;10.67;;;;;26.74;47.25;101099.84;4949688;28;45682;-85
2022/07/14 07:45:19;;;;;;;;;13.00;12.33;;;;;26.47;47.05;101057.47;4949790;28;44886;-84
2022/07/14 07:47:44;;;;;;;;;11.67;11.00;;;;;26.68;46.81;101080.13;4934304;28;45583;-85
2022/07/14 07:50:11;;;;;;;;;11.67;10.67;;;;;26.68;47.28;101056.47;4934559;28;45419;-85
2022/07/14 07:52:37;;;;;;;;;13.67;13.33;;;;;26.92;45.93;101081.69;4950765;28;47098;-85
2022/07/14 07:55:15;;;;;;;;;13.00;13.00;;;;;26.67;46.63;101042.91;4949800;28;44824;-85
2022/07/14 07:57:43;;;;;;;;;12.33;12.33;;;;;26.82;46.46;101063.09;4931932;28;45579;-85
2022/07/14 08:00:10;;;;;;;;;13.67;13.67;;;;;26.87;46.11;101045.53;4947805;28;45447;-86
2022/07/14 08:02:49;;;;;;;;;14.33;14.33;;;;;27.00;46.43;101062.19;4948842;28;46901;-85
2022/07/14 08:05:16;;;;;;;;;10.00;9.67;;;;;27.23;45.84;101098.38;4931712;28;45393;-85
2022/07/14 08:07:42;;;;;;;;;11.33;11.33;;;;;27.17;46.19;101074.09;4947875;28;45296;-85
2022/07/14 08:10:08;;;;;;;;;13.00;13.00;;;;;27.24;45.82;101071.03;4933717;28;45361;-84
2022/07/14 08:12:34;;;;;;;;;16.33;14.00;;;;;27.37;45.03;101079.50;4947297;28;47722;-86
2022/07/14 08:15:00;;;;;;;;;13.33;13.33;;;;;27.30;44.99;101087.09;4950466;28;45419;-85
2022/07/14 08:17:25;;;;;;;;;12.00;12.00;;;;;27.12;45.72;101080.69;4950820;28;44821;-84
2022/07/14 08:19:51;;;;;;;;;10.33;10.33;;;;;27.00;45.56;101085.88;4935610;28;45261;-85
2022/07/14 08:22:25;;;;;;;;;11.00;9.33;;;;;26.99;45.69;101086.84;4950169;28;46675;-85
2022/07/14 08:24:51;;;;;;;;;12.33;11.67;;;;;27.04;46.13;101088.38;4935187;28;45357;-85
2022/07/14 08:27:17;;;;;;;;;11.00;10.33;;;;;27.18;45.41;101086.81;4947323;28;45502;-84
2022/07/14 08:29:42;;;;;;;;;7.67;5.67;;;;;27.23;44.92;101085.66;4916084;28;44972;-84
2022/07/14 08:34:53;;;;;;;;;11.67;11.67;;;;;27.26;44.95;101085.50;4932675;28;44801;-85
2022/07/14 08:37:19;;;;;;;;;12.67;11.67;;;;;27.41;44.36;101082.94;4916592;28;45316;-85
2022/07/14 08:39:44;;;;;;;;;10.67;10.67;;;;;27.46;44.28;101069.94;4917073;28;45462;-85
2022/07/14 08:42:10;;;;;;;;;9.67;9.67;;;;;27.53;43.45;101072.28;4933400;28;46151;-85
2022/07/14 08:44:43;;;;;;;;;11.00;10.00;;;;;27.67;43.49;101078.88;4934235;28;44752;-85
2022/07/14 08:47:09;;;;;;;;;9.33;9.33;;;;;27.54;43.49;101043.09;4933641;28;45394;-85
2022/07/14 08:49:38;;;;;;;;;11.00;10.33;;;;;27.77;43.07;101061.03;4917878;28;44820;-85
2022/07/14 08:52:04;;;;;;;;;15.67;13.00;;;;;27.82;42.54;101072.59;4917077;28;47535;-85
2022/07/14 08:54:29;;;;;;;;;11.00;11.00;;;;;27.84;42.46;101075.25;4934633;28;45461;-85
2022/07/14 08:56:55;;;;;;;;;15.00;12.67;;;;;27.88;42.89;101076.91;4934278;28;45167;-84
2022/07/14 08:59:22;;;;;;;;;12.00;12.00;;;;;27.87;42.48;101065.06;4935353;28;44891;-84
2022/07/14 09:01:52;;;;;;;;;8.67;8.67;;;;;28.00;42.00;101070.78;4934385;28;46192;-85
2022/07/14 09:04:17;;;;;;;;;8.67;8.00;;;;;27.91;41.01;101066.69;4916155;28;45455;-85
2022/07/14 09:06:48;;;;;;;;;10.33;10.33;;;;;27.98;41.55;101083.66;4916085;28;45335;-85
2022/07/14 09:09:19;;;;;;;;;10.00;9.00;;;;;27.81;41.62;101064.47;4947188;28;45385;-84
2022/07/14 09:12:09;;;;;;;;;8.33;8.33;;;;;27.69;41.38;101033.22;4953094;28;45457;-84
2022/07/14 09:17:49;;;;;;;;;9.00;9.00;;;;;28.04;40.94;101058.72;4941339;28;45358;-84
2022/07/14 09:20:16;;;;;;;;;11.33;10.00;;;;;28.09;40.98;101042.91;4936495;28;44886;-85
2022/07/14 09:22:43;;;;;;;;;10.67;10.67;;;;;28.11;40.75;101027.31;4954101;28;45234;-84
2022/07/14 09:25:17;;;;;;;;;7.67;7.67;;;;;28.15;40.20;101028.03;4940127;28;45464;-85
2022/07/14 09:31:23;;;;;;;;;9.00;9.00;;;;;28.51;40.05;101077.13;4944531;28;45406;-85
2022/07/14 09:33:59;;;;;;;;;11.00;10.00;;;;;28.55;39.69;101068.75;4938252;28;46912;-85
2022/07/14 09:36:26;;;;;;;;;11.67;10.33;;;;;28.64;38.72;101060.00;4938171;28;44813;-85
2022/07/14 09:38:56;;;;;;;;;10.33;10.33;;;;;28.64;39.00;101054.53;4938221;28;45420;-86
2022/07/14 09:41:22;;;;;;;;;10.67;10.67;;;;;28.61;39.59;101065.66;4955659;28;45388;-83
2022/07/14 09:44:09;;;;;;;;;8.00;8.00;;;;;28.57;40.15;101055.88;4953694;28;46989;-85
2022/07/14 09:46:56;;;;;;;;;9.67;9.67;;;;;28.69;39.78;101046.97;4936714;28;45513;-85
2022/07/14 09:49:30;;;;;;;;;10.67;10.67;;;;;28.83;39.21;101058.00;4935894;28;45469;-85
2022/07/14 09:52:03;;;;;;;;;10.33;10.33;;;;;28.97;39.00;101057.22;4953295;28;44826;-84
2022/07/14 09:54:49;;;;;;;;;10.00;10.00;;;;;29.07;38.92;101047.47;4936599;28;47289;-84
2022/07/14 09:57:14;;;;;;;;;6.00;6.00;;;;;29.12;38.60;101061.81;4954100;28;44907;-85
2022/07/14 09:59:52;;;;;;;;;10.33;10.33;;;;;29.10;39.15;101046.41;4954288;28;45334;-85
2022/07/14 10:02:28;;;;;;;;;9.00;9.00;;;;;29.11;38.66;101059.19;4937551;28;45362;-84
2022/07/14 10:05:46;;;;;;;;;6.67;6.67;;;;;29.14;38.26;101047.16;4937530;28;45431;-84
2022/07/14 10:08:13;;;;;;;;;7.67;7.00;;;;;29.17;37.31;101052.44;4955141;28;45476;-85
2022/07/14 10:10:39;;;;;;;;;6.00;6.00;;;;;29.17;36.02;101052.44;4939257;28;45406;-85
2022/07/14 10:13:06;;;;;;;;;6.00;6.00;;;;;29.23;35.79;101061.19;4955434;28;45672;-85
2022/07/14 10:15:42;;;;;;;;;6.33;6.33;;;;;29.13;36.12;101040.81;4937922;28;45381;-86
2022/07/14 10:18:14;;;;;;;;;5.33;5.00;;;;;29.16;35.99;101045.19;4937260;28;45371;-85
2022/07/14 10:20:51;;;;;;;;;7.00;7.00;;;;;29.26;35.74;101046.41;4936520;28;45509;-84
2022/07/14 10:23:19;;;;;;;;;5.00;5.00;;;;;29.08;34.76;101020.97;4936780;28;45375;-85
2022/07/14 10:25:50;;;;;;;;;5.00;5.00;;;;;29.12;34.85;101033.53;4937370;28;47575;-85
2022/07/14 10:28:17;;;;;;;;;4.33;4.33;;;;;29.18;34.61;101035.91;4937745;28;44858;-85
2022/07/14 10:31:17;;;;;;;;;4.00;4.00;;;;;29.38;34.87;101055.78;4936536;28;45439;-83
2022/07/14 10:34:20;;;;;;;;;3.67;3.67;;;;;29.48;34.91;101060.59;4931378;28;45621;-84
2022/07/14 10:37:11;;;;;;;;;2.00;2.00;;;;;29.54;34.86;101064.84;4917095;28;46043;-84
2022/07/14 10:39:54;;;;;;;;;5.00;5.00;;;;;29.52;34.56;101067.66;4915673;29;44749;-86
2022/07/14 10:42:27;;;;;;;;;5.67;5.67;;;;;29.54;34.67;101067.56;4915744;28;45354;-85
2022/07/14 10:45:00;;;;;;;;;3.00;3.00;;;;;29.55;34.41;101057.47;4914909;28;44836;-84
2022/07/14 10:47:51;;;;;;;;;4.33;4.33;;;;;29.50;33.55;101052.28;4913870;28;46839;-84
2022/07/14 10:50:24;;;;;;;;;4.00;4.00;;;;;29.47;34.48;101057.94;4916373;28;45299;-85
2022/07/14 10:53:05;;;;;;;;;5.00;5.00;;;;;29.53;33.90;101046.59;4915320;28;44823;-84
2022/07/14 10:55:31;;;;;;;;;4.67;4.67;;;;;29.47;33.68;101055.19;4914323;28;45343;-84
2022/07/14 10:57:59;;;;;;;;;6.00;6.00;;;;;29.40;34.29;101049.22;4914695;28;46661;-85
2022/07/14 11:00:40;;;;;;;;;6.00;6.00;;;;;29.47;33.99;101049.72;4915239;29;45499;-85
2022/07/14 11:03:19;;;;;;;;;6.00;6.00;;;;;29.48;32.95;101052.38;4914304;29;45467;-85
2022/07/14 11:06:09;;;;;;;;;7.00;6.33;;;;;29.46;32.07;101047.97;4914938;28;45507;-84
2022/07/14 11:08:42;;;;;;;;;4.33;4.33;;;;;29.45;31.60;101057.16;4915282;28;45469;-85
2022/07/14 11:14:39;;;;;;;;;4.67;4.67;;;;;29.46;33.30;101054.31;4914882;29;45362;-84
2022/07/14 11:17:04;;;;;;;;;13.00;12.00;;;;;29.46;33.24;101048.84;4916518;28;45548;-85
2022/07/14 11:19:37;;;;;;;;;6.00;6.00;;;;;29.61;33.10;101063.50;4914313;29;47006;-85
2022/07/14 11:22:21;;;;;;;;;4.33;4.33;;;;;29.70;32.55;101056.56;4915149;29;45291;-85
2022/07/14 11:24:55;;;;;;;;;4.00;4.00;;;;;29.70;32.15;101057.44;4931452;28;44843;-84
2022/07/14 11:27:33;;;;;;;;;5.67;5.67;;;;;29.69;31.49;101063.91;4915789;29;45346;-85
2022/07/14 11:30:20;;;;;;;;;3.33;3.33;;;;;29.62;31.77;101068.00;4915152;28;47788;-85
2022/07/14 11:33:03;;;;;;;;;3.33;3.33;;;;;29.60;31.74;101066.31;4946565;28;45306;-85
2022/07/14 11:36:26;;;;;;;;;3.67;3.67;;;;;29.62;30.91;101053.41;4953173;28;45430;-85
2022/07/14 11:39:18;;;;;;;;;4.00;4.00;;;;;29.73;30.63;101041.81;4855263;29;45186;-85
2022/07/14 11:41:50;;;;;;;;;3.33;3.33;;;;;29.80;30.36;101043.22;4840981;29;46995;-85
2022/07/14 11:44:36;;;;;;;;;4.33;4.33;;;;;29.94;29.90;101048.72;4858879;29;45411;-85
2022/07/14 11:47:18;;;;;;;;;4.00;4.00;;;;;30.00;28.46;101056.56;4843333;29;45863;-85
2022/07/14 11:50:07;;;;;;;;;5.00;4.67;;;;;29.96;29.31;101045.88;4842943;29;45371;-85
2022/07/14 11:52:34;;;;;;;;;4.00;4.00;;;;;29.97;29.70;101048.50;4840406;29;45139;-85
2022/07/14 11:55:05;;;;;;;;;5.33;4.00;;;;;29.97;29.24;101043.03;4840705;29;45442;-85
2022/07/14 11:57:30;;;;;;;;;4.33;4.33;;;;;29.91;28.33;101046.16;4841624;29;45480;-84
2022/07/14 12:00:22;;;;;;;;;4.00;4.00;;;;;29.91;28.27;101048.88;4857248;29;45569;-85
2022/07/14 12:02:57;;;;;;;;;4.00;4.00;;;;;29.92;27.89;101039.69;4855587;29;45487;-85
2022/07/14 12:05:25;;;;;;;;;3.00;3.00;;;;;29.94;28.23;101029.53;4857487;29;45569;-84